sensor_id;sensor_type;location;lat;lon;timestamp;pressure;altitude;pressure_sealevel;temperature;humidity
83191;BME280;73087;49.924;22.080;2023-11-21T00:00:42;98058.56;;;8.41;82.36
83191;BME280;73087;49.924;22.080;2023-11-21T00:01:42;98055.25;;;8.39;81.84
83191;BME280;73087;49.924;22.080;2023-11-21T00:02:44;98065.72;;;8.39;82.39
83191;BME280;73087;49.924;22.080;2023-11-21T00:03:44;98054.97;;;8.42;81.98
83191;BME280;73087;49.924;22.080;2023-11-21T00:04:47;98052.81;;;8.47;82.07
83191;BME280;73087;49.924;22.080;2023-11-21T00:05:47;98056.09;;;8.49;82.13
83191;BME280;73087;49.924;22.080;2023-11-21T00:06:48;98052.25;;;8.53;81.89
83191;BME280;73087;49.924;22.080;2023-11-21T00:07:49;98029.38;;;8.36;82.15
83191;BME280;73087;49.924;22.080;2023-11-21T00:08:49;98053.91;;;8.54;81.19
83191;BME280;73087;49.924;22.080;2023-11-21T00:09:50;98055.84;;;8.52;81.81
83191;BME280;73087;49.924;22.080;2023-11-21T00:10:50;98059.41;;;8.51;82.42
83191;BME280;73087;49.924;22.080;2023-11-21T00:11:51;98061.47;;;8.47;81.31
83191;BME280;73087;49.924;22.080;2023-11-21T00:12:51;98065.16;;;8.45;81.43
83191;BME280;73087;49.924;22.080;2023-11-21T00:13:52;98044.78;;;8.39;81.63
83191;BME280;73087;49.924;22.080;2023-11-21T00:14:52;98067.09;;;8.43;81.71
83191;BME280;73087;49.924;22.080;2023-11-21T00:15:53;98054.69;;;8.45;81.93
83191;BME280;73087;49.924;22.080;2023-11-21T00:16:53;98058.28;;;8.44;82.00
83191;BME280;73087;49.924;22.080;2023-11-21T00:17:54;98056.63;;;8.43;81.92
83191;BME280;73087;49.924;22.080;2023-11-21T00:18:54;98060.22;;;8.42;81.96
83191;BME280;73087;49.924;22.080;2023-11-21T00:19:56;98070.84;;;8.40;82.17
83191;BME280;73087;49.924;22.080;2023-11-21T00:20:57;98070.25;;;8.37;81.81
83191;BME280;73087;49.924;22.080;2023-11-21T00:21:57;98066.00;;;8.36;81.92
83191;BME280;73087;49.924;22.080;2023-11-21T00:22:58;98074.81;;;8.35;82.12
83191;BME280;73087;49.924;22.080;2023-11-21T00:23:58;98072.88;;;8.37;82.19
83191;BME280;73087;49.924;22.080;2023-11-21T00:24:59;98075.91;;;8.42;82.41
83191;BME280;73087;49.924;22.080;2023-11-21T00:26:00;98078.25;;;8.45;81.77
83191;BME280;73087;49.924;22.080;2023-11-21T00:27:00;98069.03;;;8.41;82.48
83191;BME280;73087;49.924;22.080;2023-11-21T00:28:01;98075.38;;;8.48;80.97
83191;BME280;73087;49.924;22.080;2023-11-21T00:29:01;98077.31;;;8.46;82.41
83191;BME280;73087;49.924;22.080;2023-11-21T00:30:02;98067.38;;;8.40;82.35
83191;BME280;73087;49.924;22.080;2023-11-21T00:31:03;98075.91;;;8.42;81.77
83191;BME280;73087;49.924;22.080;2023-11-21T00:32:05;98069.84;;;8.32;82.35
83191;BME280;73087;49.924;22.080;2023-11-21T00:33:05;98081.69;;;8.36;82.54
83191;BME280;73087;49.924;22.080;2023-11-21T00:34:06;98069.56;;;8.35;81.47
83191;BME280;73087;49.924;22.080;2023-11-21T00:35:08;98062.97;;;8.31;81.75
83191;BME280;73087;49.924;22.080;2023-11-21T00:36:09;98050.56;;;8.23;82.70
83191;BME280;73087;49.924;22.080;2023-11-21T00:37:10;98073.44;;;8.31;82.36
83191;BME280;73087;49.924;22.080;2023-11-21T00:38:10;98075.34;;;8.29;82.30
83191;BME280;73087;49.924;22.080;2023-11-21T00:39:11;98068.47;;;8.28;82.92
83191;BME280;73087;49.924;22.080;2023-11-21T00:40:12;98066.53;;;8.30;82.74
83191;BME280;73087;49.924;22.080;2023-11-21T00:41:13;98066.53;;;8.30;82.73
83191;BME280;73087;49.924;22.080;2023-11-21T00:42:13;98065.56;;;8.31;83.06
83191;BME280;73087;49.924;22.080;2023-11-21T00:43:14;98062.97;;;8.31;82.96
83191;BME280;73087;49.924;22.080;2023-11-21T00:44:14;98069.84;;;8.32;82.44
83191;BME280;73087;49.924;22.080;2023-11-21T00:45:15;98065.31;;;8.34;82.86
83191;BME280;73087;49.924;22.080;2023-11-21T00:46:15;98066.25;;;8.33;83.09
83191;BME280;73087;49.924;22.080;2023-11-21T00:47:16;98056.34;;;8.27;82.74
83191;BME280;73087;49.924;22.080;2023-11-21T00:48:16;98039.34;;;8.12;82.62
83191;BME280;73087;49.924;22.080;2023-11-21T00:49:17;98071.78;;;8.30;82.94
83191;BME280;73087;49.924;22.080;2023-11-21T00:50:19;98061.59;;;8.27;83.54
83191;BME280;73087;49.924;22.080;2023-11-21T00:51:20;98048.84;;;8.13;83.50
83191;BME280;73087;49.924;22.080;2023-11-21T00:52:20;98080.88;;;8.35;82.52
83191;BME280;73087;49.924;22.080;2023-11-21T00:53:21;98077.31;;;8.36;82.76
83191;BME280;73087;49.924;22.080;2023-11-21T00:54:21;98085.00;;;8.38;82.77
83191;BME280;73087;49.924;22.080;2023-11-21T00:55:22;98078.09;;;8.37;83.00
83191;BME280;73087;49.924;22.080;2023-11-21T00:56:23;98079.75;;;8.38;83.41
83191;BME280;73087;49.924;22.080;2023-11-21T00:57:23;98075.50;;;8.37;82.95
83191;BME280;73087;49.924;22.080;2023-11-21T00:58:24;98078.38;;;8.34;82.64
83191;BME280;73087;49.924;22.080;2023-11-21T00:59:24;98068.19;;;8.31;83.03
83191;BME280;73087;49.924;22.080;2023-11-21T01:00:25;98074.50;;;8.28;82.94
83191;BME280;73087;49.924;22.080;2023-11-21T01:01:26;98071.09;;;8.28;82.94
83191;BME280;73087;49.924;22.080;2023-11-21T01:02:26;98071.09;;;8.28;83.18
83191;BME280;73087;49.924;22.080;2023-11-21T01:03:27;98065.16;;;8.26;82.67
83191;BME280;73087;49.924;22.080;2023-11-21T01:04:27;98068.75;;;8.25;82.90
83191;BME280;73087;49.924;22.080;2023-11-21T01:05:29;98056.91;;;8.21;82.54
83191;BME280;73087;49.924;22.080;2023-11-21T01:06:30;98068.47;;;8.28;82.70
83191;BME280;73087;49.924;22.080;2023-11-21T01:07:30;98066.53;;;8.30;82.36
83191;BME280;73087;49.924;22.080;2023-11-21T01:08:31;98069.84;;;8.32;82.24
83191;BME280;73087;49.924;22.080;2023-11-21T01:09:31;98070.69;;;8.32;82.44
83191;BME280;73087;49.924;22.080;2023-11-21T01:10:32;98066.53;;;8.30;82.49
83191;BME280;73087;49.924;22.080;2023-11-21T01:11:32;98070.97;;;8.29;82.58
83191;BME280;73087;49.924;22.080;2023-11-21T01:12:34;98068.47;;;8.28;82.61
83191;BME280;73087;49.924;22.080;2023-11-21T01:13:34;98066.81;;;8.27;83.19
83191;BME280;73087;49.924;22.080;2023-11-21T01:14:35;98070.41;;;8.26;82.52
83191;BME280;73087;49.924;22.080;2023-11-21T01:15:35;98068.47;;;8.28;82.67
83191;BME280;73087;49.924;22.080;2023-11-21T01:16:36;98061.59;;;8.27;82.59
83191;BME280;73087;49.924;22.080;2023-11-21T01:17:36;98066.81;;;8.27;82.53
83191;BME280;73087;49.924;22.080;2023-11-21T01:18:37;98064.88;;;8.29;82.80
83191;BME280;73087;49.924;22.080;2023-11-21T01:19:38;98062.97;;;8.31;82.60
83191;BME280;73087;49.924;22.080;2023-11-21T01:20:40;98064.88;;;8.29;82.35
83191;BME280;73087;49.924;22.080;2023-11-21T01:21:40;98055.13;;;8.31;82.89
83191;BME280;73087;49.924;22.080;2023-11-21T01:22:41;98064.63;;;8.32;83.36
83191;BME280;73087;49.924;22.080;2023-11-21T01:23:41;98061.19;;;8.31;83.50
83191;BME280;73087;49.924;22.080;2023-11-21T01:24:42;98056.66;;;8.33;84.02
83191;BME280;73087;49.924;22.080;2023-11-21T01:25:42;98062.00;;;8.32;83.49
83191;BME280;73087;49.924;22.080;2023-11-21T01:26:43;98050.84;;;8.30;83.05
83191;BME280;73087;49.924;22.080;2023-11-21T01:27:43;98052.78;;;8.28;82.95
83191;BME280;73087;49.924;22.080;2023-11-21T01:28:44;98055.66;;;8.25;82.83
83191;BME280;73087;49.924;22.080;2023-11-21T01:29:45;98043.53;;;8.24;83.86
83191;BME280;73087;49.924;22.080;2023-11-21T01:30:45;98051.41;;;8.24;83.30
83191;BME280;73087;49.924;22.080;2023-11-21T01:31:46;98050.56;;;8.23;83.24
83191;BME280;73087;49.924;22.080;2023-11-21T01:32:46;98059.25;;;8.24;84.03
83191;BME280;73087;49.924;22.080;2023-11-21T01:33:47;98056.63;;;8.24;84.28
83191;BME280;73087;49.924;22.080;2023-11-21T01:34:47;98062.38;;;8.27;83.67
83191;BME280;73087;49.924;22.080;2023-11-21T01:35:49;98061.31;;;8.30;83.78
83191;BME280;73087;49.924;22.080;2023-11-21T01:36:50;98045.03;;;8.17;83.43
83191;BME280;73087;49.924;22.080;2023-11-21T01:37:50;98055.81;;;8.33;83.02
83191;BME280;73087;49.924;22.080;2023-11-21T01:38:51;98055.81;;;8.33;83.57
83191;BME280;73087;49.924;22.080;2023-11-21T01:39:51;98059.38;;;8.32;83.44
83191;BME280;73087;49.924;22.080;2023-11-21T01:40:52;98062.97;;;8.31;83.42
83191;BME280;73087;49.924;22.080;2023-11-21T01:41:52;98061.31;;;8.30;83.31
83191;BME280;73087;49.924;22.080;2023-11-21T01:42:53;98060.34;;;8.31;83.65
83191;BME280;73087;49.924;22.080;2023-11-21T01:43:54;98057.72;;;8.31;83.31
83191;BME280;73087;49.924;22.080;2023-11-21T01:44:54;98052.22;;;8.34;84.54
83191;BME280;73087;49.924;22.080;2023-11-21T01:45:55;98059.09;;;8.35;83.30
83191;BME280;73087;49.924;22.080;2023-11-21T01:46:56;98013.91;;;8.14;83.16
83191;BME280;73087;49.924;22.080;2023-11-21T01:47:56;98060.47;;;8.39;83.83
83191;BME280;73087;49.924;22.080;2023-11-21T01:48:57;98058.56;;;8.41;83.74
83191;BME280;73087;49.924;22.080;2023-11-21T01:49:58;98047.00;;;8.43;83.67
83191;BME280;73087;49.924;22.080;2023-11-21T01:51:00;98049.47;;;8.45;84.01
83191;BME280;73087;49.924;22.080;2023-11-21T01:52:02;98052.81;;;8.47;84.40
83191;BME280;73087;49.924;22.080;2023-11-21T01:53:03;98056.09;;;8.49;83.82
83191;BME280;73087;49.924;22.080;2023-11-21T01:54:04;98056.09;;;8.49;84.20
83191;BME280;73087;49.924;22.080;2023-11-21T01:55:06;98053.34;;;8.50;83.83
83191;BME280;73087;49.924;22.080;2023-11-21T01:56:08;98050.59;;;8.52;83.43
83191;BME280;73087;49.924;22.080;2023-11-21T01:57:08;98068.91;;;8.52;84.00
83191;BME280;73087;49.924;22.080;2023-11-21T01:58:10;98054.88;;;8.53;83.99
83191;BME280;73087;49.924;22.080;2023-11-21T01:59:12;98055.84;;;8.52;83.55
83191;BME280;73087;49.924;22.080;2023-11-21T02:00:14;98059.13;;;8.54;83.29
83191;BME280;73087;49.924;22.080;2023-11-21T02:01:15;98052.25;;;8.53;83.12
83191;BME280;73087;49.924;22.080;2023-11-21T02:02:15;98051.28;;;8.54;83.66
83191;BME280;73087;49.924;22.080;2023-11-21T02:03:16;98062.44;;;8.56;83.87
83191;BME280;73087;49.924;22.080;2023-11-21T02:04:17;98055.28;;;8.58;83.42
83191;BME280;73087;49.924;22.080;2023-11-21T02:05:19;98062.97;;;8.59;83.82
83191;BME280;73087;49.924;22.080;2023-11-21T02:06:21;98056.09;;;8.58;83.14
83191;BME280;73087;49.924;22.080;2023-11-21T02:07:22;98061.19;;;8.60;83.55
83191;BME280;73087;49.924;22.080;2023-11-21T02:08:22;98063.53;;;8.63;83.31
83191;BME280;73087;49.924;22.080;2023-11-21T02:09:25;98070.44;;;8.64;83.35
83191;BME280;73087;49.924;22.080;2023-11-21T02:10:25;98059.97;;;8.64;83.48
83191;BME280;73087;49.924;22.080;2023-11-21T02:11:26;98063.25;;;8.66;83.62
83191;BME280;73087;49.924;22.080;2023-11-21T02:12:26;98063.25;;;8.66;83.24
83191;BME280;73087;49.924;22.080;2023-11-21T02:13:27;98059.00;;;8.65;83.85
83191;BME280;73087;49.924;22.080;2023-11-21T02:14:27;98058.03;;;8.66;83.78
83191;BME280;73087;49.924;22.080;2023-11-21T02:15:28;98034.34;;;8.48;83.35
83191;BME280;73087;49.924;22.080;2023-11-21T02:16:29;98057.75;;;8.69;82.80
83191;BME280;73087;49.924;22.080;2023-11-21T02:17:30;98070.72;;;8.70;83.29
83191;BME280;73087;49.924;22.080;2023-11-21T02:18:30;98064.63;;;8.70;83.11
83191;BME280;73087;49.924;22.080;2023-11-21T02:19:31;98067.13;;;8.71;83.98
83191;BME280;73087;49.924;22.080;2023-11-21T02:20:32;98064.63;;;8.70;82.97
83191;BME280;73087;49.924;22.080;2023-11-21T02:21:34;98062.72;;;8.72;83.64
83191;BME280;73087;49.924;22.080;2023-11-21T02:22:37;98067.94;;;8.72;82.68
83191;BME280;73087;49.924;22.080;2023-11-21T02:23:40;98069.59;;;8.73;83.37
83191;BME280;73087;49.924;22.080;2023-11-21T02:24:41;98064.34;;;8.73;83.51
83191;BME280;73087;49.924;22.080;2023-11-21T02:25:41;98066.00;;;8.74;83.75
83191;BME280;73087;49.924;22.080;2023-11-21T02:26:42;98071.25;;;8.74;83.91
83191;BME280;73087;49.924;22.080;2023-11-21T02:27:42;98070.97;;;8.77;83.44
83191;BME280;73087;49.924;22.080;2023-11-21T02:28:43;98072.66;;;8.78;83.44
83191;BME280;73087;49.924;22.080;2023-11-21T02:29:43;98066.69;;;8.76;82.98
83191;BME280;73087;49.924;22.080;2023-11-21T02:30:44;98063.13;;;8.77;83.83
83191;BME280;73087;49.924;22.080;2023-11-21T02:31:45;98069.06;;;8.79;83.09
83191;BME280;73087;49.924;22.080;2023-11-21T02:32:46;98070.97;;;8.77;82.33
83191;BME280;73087;49.924;22.080;2023-11-21T02:33:46;98070.97;;;8.77;83.23
83191;BME280;73087;49.924;22.080;2023-11-21T02:34:47;98065.72;;;8.77;82.68
83191;BME280;73087;49.924;22.080;2023-11-21T02:35:47;98067.66;;;8.75;82.45
83191;BME280;73087;49.924;22.080;2023-11-21T02:36:48;98072.09;;;8.74;83.33
83191;BME280;73087;49.924;22.080;2023-11-21T02:37:49;98067.66;;;8.75;83.20
83191;BME280;73087;49.924;22.080;2023-11-21T02:38:51;98067.66;;;8.75;83.24
83191;BME280;73087;49.924;22.080;2023-11-21T02:39:51;98065.03;;;8.75;82.81
83191;BME280;73087;49.924;22.080;2023-11-21T02:40:52;98069.31;;;8.76;83.23
83191;BME280;73087;49.924;22.080;2023-11-21T02:41:52;98070.97;;;8.77;82.87
83191;BME280;73087;49.924;22.080;2023-11-21T02:42:53;98067.41;;;8.78;83.41
83191;BME280;73087;49.924;22.080;2023-11-21T02:43:54;98067.41;;;8.78;83.34
83191;BME280;73087;49.924;22.080;2023-11-21T02:44:54;98069.06;;;8.79;83.27
83191;BME280;73087;49.924;22.080;2023-11-21T02:45:55;98060.50;;;8.77;82.69
83191;BME280;73087;49.924;22.080;2023-11-21T02:46:55;98071.69;;;8.79;83.44
83191;BME280;73087;49.924;22.080;2023-11-21T02:47:56;98069.88;;;8.79;82.59
83191;BME280;73087;49.924;22.080;2023-11-21T02:48:56;98063.84;;;8.79;82.52
83191;BME280;73087;49.924;22.080;2023-11-21T02:49:57;98039.03;;;8.64;82.81
83191;BME280;73087;49.924;22.080;2023-11-21T02:50:57;98071.53;;;8.80;83.10
83191;BME280;73087;49.924;22.080;2023-11-21T02:51:58;98075.00;;;8.81;82.97
83191;BME280;73087;49.924;22.080;2023-11-21T02:52:58;98072.38;;;8.81;82.22
83191;BME280;73087;49.924;22.080;2023-11-21T02:54:00;98077.59;;;8.81;83.31
83191;BME280;73087;49.924;22.080;2023-11-21T02:55:01;98058.84;;;8.76;83.00
83191;BME280;73087;49.924;22.080;2023-11-21T02:56:02;98072.66;;;8.78;82.81
83191;BME280;73087;49.924;22.080;2023-11-21T02:57:02;98069.31;;;8.76;83.61
83191;BME280;73087;49.924;22.080;2023-11-21T02:58:03;98051.97;;;8.75;83.67
83191;BME280;73087;49.924;22.080;2023-11-21T02:59:03;98063.28;;;8.75;83.28
83191;BME280;73087;49.924;22.080;2023-11-21T03:00:05;98062.44;;;8.75;83.12
83191;BME280;73087;49.924;22.080;2023-11-21T03:01:06;98072.91;;;8.75;83.05
83191;BME280;73087;49.924;22.080;2023-11-21T03:02:07;98062.44;;;8.75;82.90
83191;BME280;73087;49.924;22.080;2023-11-21T03:03:07;98064.94;;;8.76;83.46
83191;BME280;73087;49.924;22.080;2023-11-21T03:04:08;98066.00;;;8.74;83.04
83191;BME280;73087;49.924;22.080;2023-11-21T03:05:08;98065.72;;;8.77;83.24
83191;BME280;73087;49.924;22.080;2023-11-21T03:06:09;98070.97;;;8.77;83.68
83191;BME280;73087;49.924;22.080;2023-11-21T03:07:10;98065.72;;;8.77;83.51
83191;BME280;73087;49.924;22.080;2023-11-21T03:08:10;98077.88;;;8.78;83.27
83191;BME280;73087;49.924;22.080;2023-11-21T03:09:12;98065.72;;;8.77;82.93
83191;BME280;73087;49.924;22.080;2023-11-21T03:10:13;98062.19;;;8.78;83.11
83191;BME280;73087;49.924;22.080;2023-11-21T03:11:13;98069.06;;;8.79;83.50
83191;BME280;73087;49.924;22.080;2023-11-21T03:12:14;98067.13;;;8.81;83.37
83191;BME280;73087;49.924;22.080;2023-11-21T03:13:14;98063.56;;;8.82;84.28
83191;BME280;73087;49.924;22.080;2023-11-21T03:14:15;98066.84;;;8.84;83.30
83191;BME280;73087;49.924;22.080;2023-11-21T03:15:16;98060.78;;;8.83;82.91
83191;BME280;73087;49.924;22.080;2023-11-21T03:16:16;98061.63;;;8.84;83.90
83191;BME280;73087;49.924;22.080;2023-11-21T03:17:17;98063.28;;;8.85;84.04
83191;BME280;73087;49.924;22.080;2023-11-21T03:18:17;98066.56;;;8.87;83.06
83191;BME280;73087;49.924;22.080;2023-11-21T03:19:18;98067.25;;;8.89;82.90
83191;BME280;73087;49.924;22.080;2023-11-21T03:20:18;98064.66;;;8.89;83.67
83191;BME280;73087;49.924;22.080;2023-11-21T03:21:19;98069.59;;;8.92;83.60
83191;BME280;73087;49.924;22.080;2023-11-21T03:22:19;98064.38;;;8.92;82.94
83191;BME280;73087;49.924;22.080;2023-11-21T03:23:20;98059.69;;;8.95;83.01
83191;BME280;73087;49.924;22.080;2023-11-21T03:24:22;98040.97;;;8.81;83.91
83191;BME280;73087;49.924;22.080;2023-11-21T03:25:23;98063.81;;;8.98;83.42
83191;BME280;73087;49.924;22.080;2023-11-21T03:26:23;98065.44;;;8.99;83.34
83191;BME280;73087;49.924;22.080;2023-11-21T03:27:24;98070.69;;;8.99;83.23
83191;BME280;73087;49.924;22.080;2023-11-21T03:28:24;98077.28;;;9.03;82.65
83191;BME280;73087;49.924;22.080;2023-11-21T03:29:25;98065.16;;;9.02;82.49
83191;BME280;73087;49.924;22.080;2023-11-21T03:30:26;98067.78;;;9.02;83.42
83191;BME280;73087;49.924;22.080;2023-11-21T03:31:26;98068.47;;;9.04;83.75
83191;BME280;73087;49.924;22.080;2023-11-21T03:32:27;98063.22;;;9.04;82.98
83191;BME280;73087;49.924;22.080;2023-11-21T03:33:27;98058.97;;;9.03;83.36
83191;BME280;73087;49.924;22.080;2023-11-21T03:34:28;98066.25;;;9.09;83.78
83191;BME280;73087;49.924;22.080;2023-11-21T03:35:29;98069.59;;;9.11;83.19
83191;BME280;73087;49.924;22.080;2023-11-21T03:36:29;98060.75;;;9.12;82.94
83191;BME280;73087;49.924;22.080;2023-11-21T03:37:30;98070.97;;;9.15;82.99
83191;BME280;73087;49.924;22.080;2023-11-21T03:38:30;98057.19;;;9.13;83.10
83191;BME280;73087;49.924;22.080;2023-11-21T03:39:32;98065.44;;;9.18;83.17
83191;BME280;73087;49.924;22.080;2023-11-21T03:40:33;98065.44;;;9.18;82.59
83191;BME280;73087;49.924;22.080;2023-11-21T03:41:33;98064.59;;;9.17;83.36
83191;BME280;73087;49.924;22.080;2023-11-21T03:42:34;98065.44;;;9.18;82.82
83191;BME280;73087;49.924;22.080;2023-11-21T03:43:34;98063.78;;;9.17;82.88
83191;BME280;73087;49.924;22.080;2023-11-21T03:44:35;98077.84;;;9.16;83.04
83191;BME280;73087;49.924;22.080;2023-11-21T03:45:35;98067.38;;;9.16;83.96
83191;BME280;73087;49.924;22.080;2023-11-21T03:46:36;98069.03;;;9.17;83.07
83191;BME280;73087;49.924;22.080;2023-11-21T03:47:36;98072.31;;;9.18;84.12
83191;BME280;73087;49.924;22.080;2023-11-21T03:48:37;98067.09;;;9.18;83.57
83191;BME280;73087;49.924;22.080;2023-11-21T03:49:37;98063.50;;;9.19;82.99
83191;BME280;73087;49.924;22.080;2023-11-21T03:50:38;98067.78;;;9.20;83.70
83191;BME280;73087;49.924;22.080;2023-11-21T03:51:39;98070.38;;;9.20;84.02
83191;BME280;73087;49.924;22.080;2023-11-21T03:52:39;98062.38;;;9.22;83.26
83191;BME280;73087;49.924;22.080;2023-11-21T03:53:40;98073.41;;;9.25;83.85
83191;BME280;73087;49.924;22.080;2023-11-21T03:54:42;98069.81;;;9.26;82.78
83191;BME280;73087;49.924;22.080;2023-11-21T03:55:42;98066.22;;;9.27;83.46
83191;BME280;73087;49.924;22.080;2023-11-21T03:56:43;98066.22;;;9.27;83.55
83191;BME280;73087;49.924;22.080;2023-11-21T03:57:43;98069.53;;;9.29;83.05
83191;BME280;73087;49.924;22.080;2023-11-21T03:58:44;98073.81;;;9.30;83.61
83191;BME280;73087;49.924;22.080;2023-11-21T03:59:44;98070.09;;;9.33;82.87
83191;BME280;73087;49.924;22.080;2023-11-21T04:00:46;98072.84;;;9.31;82.59
83191;BME280;73087;49.924;22.080;2023-11-21T04:01:47;98071.19;;;9.30;83.72
83191;BME280;73087;49.924;22.080;2023-11-21T04:02:47;98072.84;;;9.31;83.89
83191;BME280;73087;49.924;22.080;2023-11-21T04:03:48;98070.91;;;9.33;83.57
83191;BME280;73087;49.924;22.080;2023-11-21T04:04:49;98073.41;;;9.35;84.00
83191;BME280;73087;49.924;22.080;2023-11-21T04:05:49;98067.31;;;9.34;82.72
83191;BME280;73087;49.924;22.080;2023-11-21T04:06:50;98066.34;;;9.35;84.35
83191;BME280;73087;49.924;22.080;2023-11-21T04:07:50;98073.91;;;9.38;83.32
83191;BME280;73087;49.924;22.080;2023-11-21T04:08:51;98068.41;;;9.41;83.71
83191;BME280;73087;49.924;22.080;2023-11-21T04:09:53;98071.72;;;9.43;82.81
83191;BME280;73087;49.924;22.080;2023-11-21T04:10:53;98073.38;;;9.44;82.85
83191;BME280;73087;49.924;22.080;2023-11-21T04:11:54;98076.97;;;9.43;82.41
83191;BME280;73087;49.924;22.080;2023-11-21T04:12:54;98076.53;;;9.48;84.04
83191;BME280;73087;49.924;22.080;2023-11-21T04:13:55;98076.41;;;9.49;82.78
83191;BME280;73087;49.924;22.080;2023-11-21T04:14:55;98072.81;;;9.50;83.04
83191;BME280;73087;49.924;22.080;2023-11-21T04:15:56;98074.44;;;9.51;82.68
83191;BME280;73087;49.924;22.080;2023-11-21T04:16:57;98076.09;;;9.52;82.50
83191;BME280;73087;49.924;22.080;2023-11-21T04:17:57;98076.09;;;9.52;83.10
83191;BME280;73087;49.924;22.080;2023-11-21T04:18:58;98083.00;;;9.53;83.10
83191;BME280;73087;49.924;22.080;2023-11-21T04:19:59;98074.44;;;9.51;82.80
83191;BME280;73087;49.924;22.080;2023-11-21T04:20:59;98072.81;;;9.50;82.49
83191;BME280;73087;49.924;22.080;2023-11-21T04:22:00;98067.56;;;9.50;83.28
83191;BME280;73087;49.924;22.080;2023-11-21T04:23:00;98078.84;;;9.51;83.53
83191;BME280;73087;49.924;22.080;2023-11-21T04:24:01;98078.03;;;9.50;83.54
83191;BME280;73087;49.924;22.080;2023-11-21T04:25:03;98081.63;;;9.49;82.38
83191;BME280;73087;49.924;22.080;2023-11-21T04:26:04;98068.66;;;9.48;82.81
83191;BME280;73087;49.924;22.080;2023-11-21T04:27:05;98074.75;;;9.48;83.89
83191;BME280;73087;49.924;22.080;2023-11-21T04:28:05;98070.88;;;9.52;83.78
83191;BME280;73087;49.924;22.080;2023-11-21T04:29:06;98077.75;;;9.53;82.70
83191;BME280;73087;49.924;22.080;2023-11-21T04:30:07;98080.22;;;9.55;82.97
83191;BME280;73087;49.924;22.080;2023-11-21T04:31:08;98074.16;;;9.54;83.05
83191;BME280;73087;49.924;22.080;2023-11-21T04:32:08;98076.63;;;9.56;82.50
83191;BME280;73087;49.924;22.080;2023-11-21T04:33:09;98077.75;;;9.53;82.69
83191;BME280;73087;49.924;22.080;2023-11-21T04:34:09;98074.97;;;9.55;83.62
83191;BME280;73087;49.924;22.080;2023-11-21T04:35:10;98072.50;;;9.53;83.34
83191;BME280;73087;49.924;22.080;2023-11-21T04:36:10;98074.44;;;9.51;83.73
83191;BME280;73087;49.924;22.080;2023-11-21T04:37:11;98077.38;;;9.48;83.20
83191;BME280;73087;49.924;22.080;2023-11-21T04:38:12;98084.53;;;9.46;83.42
83191;BME280;73087;49.924;22.080;2023-11-21T04:39:12;98078.63;;;9.44;82.72
83191;BME280;73087;49.924;22.080;2023-11-21T04:40:14;98072.81;;;9.41;82.79
83191;BME280;73087;49.924;22.080;2023-11-21T04:41:15;98083.31;;;9.41;82.24
83191;BME280;73087;49.924;22.080;2023-11-21T04:42:15;98081.53;;;9.41;82.89
83191;BME280;73087;49.924;22.080;2023-11-21T04:43:16;98086.06;;;9.39;84.12
83191;BME280;73087;49.924;22.080;2023-11-21T04:44:16;98083.44;;;9.39;83.50
83191;BME280;73087;49.924;22.080;2023-11-21T04:45:17;98087.03;;;9.38;84.05
83191;BME280;73087;49.924;22.080;2023-11-21T04:46:17;98088.84;;;9.38;83.41
83191;BME280;73087;49.924;22.080;2023-11-21T04:47:18;98094.88;;;9.38;83.68
83191;BME280;73087;49.924;22.080;2023-11-21T04:48:19;98094.88;;;9.38;83.88
83191;BME280;73087;49.924;22.080;2023-11-21T04:49:19;98084.41;;;9.38;82.57
83191;BME280;73087;49.924;22.080;2023-11-21T04:50:20;98094.88;;;9.38;82.95
83191;BME280;73087;49.924;22.080;2023-11-21T04:51:20;98093.22;;;9.37;82.63
83191;BME280;73087;49.924;22.080;2023-11-21T04:52:21;98096.81;;;9.36;83.01
83191;BME280;73087;49.924;22.080;2023-11-21T04:53:21;98097.78;;;9.35;83.78
83191;BME280;73087;49.924;22.080;2023-11-21T04:54:22;98091.59;;;9.36;83.69
83191;BME280;73087;49.924;22.080;2023-11-21T04:55:24;98091.59;;;9.36;84.07
83191;BME280;73087;49.924;22.080;2023-11-21T04:56:24;98095.16;;;9.35;82.53
83191;BME280;73087;49.924;22.080;2023-11-21T04:57:25;98091.88;;;9.33;84.01
83191;BME280;73087;49.924;22.080;2023-11-21T04:58:25;98086.63;;;9.33;83.83
83191;BME280;73087;49.924;22.080;2023-11-21T04:59:26;98093.81;;;9.31;83.68
83191;BME280;73087;49.924;22.080;2023-11-21T05:00:26;98087.75;;;9.31;82.65
83191;BME280;73087;49.924;22.080;2023-11-21T05:01:27;98103.59;;;9.29;83.93
83191;BME280;73087;49.924;22.080;2023-11-21T05:02:27;98097.38;;;9.30;83.95
83191;BME280;73087;49.924;22.080;2023-11-21T05:03:28;98095.47;;;9.32;84.09
83191;BME280;73087;49.924;22.080;2023-11-21T05:04:28;98095.75;;;9.29;82.81
83191;BME280;73087;49.924;22.080;2023-11-21T05:05:29;98095.75;;;9.29;83.46
83191;BME280;73087;49.924;22.080;2023-11-21T05:06:29;98096.72;;;9.28;83.75
83191;BME280;73087;49.924;22.080;2023-11-21T05:07:30;98099.31;;;9.28;82.47
83191;BME280;73087;49.924;22.080;2023-11-21T05:08:30;98104.56;;;9.28;82.22
83191;BME280;73087;49.924;22.080;2023-11-21T05:09:31;98099.63;;;9.25;82.32
83191;BME280;73087;49.924;22.080;2023-11-21T05:10:33;98103.19;;;9.24;82.20
83191;BME280;73087;49.924;22.080;2023-11-21T05:11:33;98098.94;;;9.23;82.29
83191;BME280;73087;49.924;22.080;2023-11-21T05:12:34;98091.06;;;9.23;83.25
83191;BME280;73087;49.924;22.080;2023-11-21T05:13:34;98098.81;;;9.25;83.31
83191;BME280;73087;49.924;22.080;2023-11-21T05:14:35;98089.41;;;9.22;83.67
83191;BME280;73087;49.924;22.080;2023-11-21T05:15:36;98089.69;;;9.19;83.80
83191;BME280;73087;49.924;22.080;2023-11-21T05:16:36;98096.59;;;9.20;83.70
83191;BME280;73087;49.924;22.080;2023-11-21T05:17:37;98096.88;;;9.18;83.15
83191;BME280;73087;49.924;22.080;2023-11-21T05:18:38;98105.53;;;9.18;82.43
83191;BME280;73087;49.924;22.080;2023-11-21T05:19:38;98098.53;;;9.18;83.45
83191;BME280;73087;49.924;22.080;2023-11-21T05:20:39;98103.75;;;9.18;83.41
83191;BME280;73087;49.924;22.080;2023-11-21T05:21:39;98094.94;;;9.19;83.85